Time;durP1;ratioP1;P1;durP2;ratioP2;P2;SDS_P1;SDS_P2;PMS_P1;PMS_P2;Temp;Humidity;BMP_temperature;BMP_pressure;BME280_temperature;BME280_humidity;BME280_pressure;Samples;Min_cycle;Max_cycle;Signal;HPM_P1;HPM_P2
2022/04/04 00:01:02;;;;;;;;;;;;;;;-2.34;79.71;97454.45;109763;1249;59742;-61
2022/04/04 00:03:32;;;;;;;14.60;10.00;;;;;;;-2.38;79.55;97459.65;110056;1247;71136;-61
2022/04/04 00:06:02;;;;;;;;;;;;;;;-2.43;79.80;97459.59;110126;1247;69434;-63
2022/04/04 00:08:33;;;;;;;14.50;11.20;;;;;;;-2.47;79.60;97461.89;109946;1248;69231;-63
2022/04/04 00:11:03;;;;;;;18.00;11.90;;;;;;;-2.49;79.95;97463.65;110056;1249;60174;-61
2022/04/04 00:13:33;;;;;;;15.20;11.40;;;;;;;-2.55;80.03;97463.92;110016;1250;59723;-61
2022/04/04 00:16:04;;;;;;;18.60;12.40;;;;;;;-2.60;80.26;97470.16;110059;1248;70603;-64
2022/04/04 00:18:35;;;;;;;16.90;12.30;;;;;;;-2.56;79.47;97470.27;110024;1250;68458;-61
2022/04/04 00:21:06;;;;;;;16.40;11.40;;;;;;;-2.53;79.45;97472.77;109988;1248;68649;-60
2022/04/04 00:23:36;;;;;;;18.50;13.00;;;;;;;-2.53;79.38;97476.52;110043;1249;59675;-60
2022/04/04 00:26:06;;;;;;;15.50;11.00;;;;;;;-2.53;79.66;97475.84;110013;1250;59721;-61
2022/04/04 00:28:37;;;;;;;19.70;12.50;;;;;;;-2.54;79.70;97476.90;110035;1247;70741;-63
2022/04/04 00:31:07;;;;;;;19.00;13.60;;;;;;;-2.51;78.88;97479.73;110087;1248;69364;-61
2022/04/04 00:33:37;;;;;;;16.10;12.00;;;;;;;-2.50;79.04;97480.72;110049;1247;68622;-61
2022/04/04 00:36:07;;;;;;;16.20;12.10;;;;;;;-2.49;78.93;97478.33;110047;1248;59803;-60
2022/04/04 00:38:37;;;;;;;15.50;10.60;;;;;;;-2.50;78.98;97480.05;110104;1248;59766;-60
2022/04/04 00:41:17;;;;;;;14.80;10.70;;;;;;;-2.50;78.41;97484.84;110082;1248;71584;-60
2022/04/04 00:43:51;;;;;;;16.20;11.60;;;;;;;-2.49;78.33;97487.37;109958;1250;69409;-61
2022/04/04 00:46:21;;;;;;;15.60;10.60;;;;;;;-2.46;77.89;97492.27;110132;1248;69438;-60
2022/04/04 00:48:51;;;;;;;17.30;11.00;;;;;;;-2.38;76.20;97492.27;110011;1248;59762;-61
2022/04/04 00:51:22;;;;;;;17.30;11.10;;;;;;;-2.34;76.19;97498.50;109846;1250;59739;-64
2022/04/04 00:53:53;;;;;;;16.60;13.00;;;;;;;-2.28;75.81;97500.60;109994;1250;71558;-62
2022/04/04 00:56:26;;;;;;;;;;;;;;;-2.27;76.16;97505.02;110130;1248;69155;-61
2022/04/04 00:58:56;;;;;;;15.40;11.60;;;;;;;-2.26;75.89;97505.17;110106;1247;68536;-61
2022/04/04 01:01:27;;;;;;;16.80;11.80;;;;;;;-2.24;76.20;97506.14;110027;1248;59760;-61
2022/04/04 01:03:58;;;;;;;16.80;11.60;;;;;;;-2.23;75.57;97505.09;110032;1247;59626;-64
2022/04/04 01:06:28;;;;;;;16.70;11.30;;;;;;;-2.20;74.68;97508.80;110080;1247;71557;-61
2022/04/04 01:08:58;;;;;;;13.00;10.10;;;;;;;-2.18;75.19;97504.14;110116;1248;69398;-61
2022/04/04 01:11:28;;;;;;;15.60;11.10;;;;;;;-2.17;75.66;97506.85;110050;1247;69413;-62
2022/04/04 01:13:58;;;;;;;13.10;10.60;;;;;;;-2.17;76.13;97505.65;109991;1247;59752;-62
2022/04/04 01:16:28;;;;;;;13.80;10.30;;;;;;;-2.18;76.55;97498.66;110055;1247;59662;-61
2022/04/04 01:18:59;;;;;;;15.20;11.80;;;;;;;-2.18;76.13;97501.91;110066;1248;70711;-61
2022/04/04 01:21:30;;;;;;;15.20;10.60;;;;;;;-2.18;76.51;97503.96;110099;1247;68581;-62
2022/04/04 01:24:02;;;;;;;15.80;12.90;;;;;;;-2.18;75.87;97503.80;110012;1248;69426;-61
2022/04/04 01:26:32;;;;;;;16.60;11.50;;;;;;;-2.19;75.89;97502.62;110066;1248;59691;-62
2022/04/04 01:29:03;;;;;;;15.90;12.40;;;;;;;-2.19;76.07;97501.59;110112;1247;59749;-61
2022/04/04 01:31:34;;;;;;;17.60;11.40;;;;;;;-2.20;77.10;97503.33;110050;1247;70792;-61
2022/04/04 01:34:05;;;;;;;15.50;10.20;;;;;;;-2.21;76.81;97500.96;110057;1248;68399;-62
2022/04/04 01:36:36;;;;;;;11.90;8.30;;;;;;;-2.21;78.09;97501.31;110098;1247;68613;-61
2022/04/04 01:39:08;;;;;;;14.10;10.20;;;;;;;-2.22;77.49;97502.34;109864;1250;59739;-62
2022/04/04 01:41:39;;;;;;;12.80;9.20;;;;;;;-2.23;77.63;97504.06;109984;1248;59686;-61
2022/04/04 01:44:08;;;;;;;;;;;;;;;-2.25;78.03;97499.86;110054;1246;71536;-61
2022/04/04 01:46:39;;;;;;;13.50;10.40;;;;;;;-2.29;79.41;97499.92;110146;1248;69561;-61
2022/04/04 01:49:09;;;;;;;11.00;8.90;;;;;;;-2.34;79.71;97498.67;109967;1250;69212;-63
2022/04/04 01:51:40;;;;;;;12.50;9.50;;;;;;;-2.39;79.77;97495.52;110088;1248;59721;-60
2022/04/04 01:54:10;;;;;;;10.80;7.70;;;;;;;-2.42;79.75;97495.94;110008;1248;59746;-62
2022/04/04 01:56:43;;;;;;;;;;;;;;;-2.45;79.35;97497.02;110073;1247;71534;-61
2022/04/04 01:59:14;;;;;;;13.20;10.00;;;;;;;-2.50;78.80;97498.80;109997;1250;68410;-62
2022/04/04 02:01:44;;;;;;;14.60;10.50;;;;;;;-2.51;78.41;97499.17;109875;1249;68600;-61
2022/04/04 02:04:14;;;;;;;17.10;12.40;;;;;;;-2.52;78.16;97502.11;110144;1247;59734;-60
2022/04/04 02:06:44;;;;;;;17.70;13.00;;;;;;;-2.52;78.12;97506.38;110004;1247;59747;-63
2022/04/04 02:09:15;;;;;;;18.70;12.40;;;;;;;-2.55;78.39;97508.13;110042;1248;71487;-62
2022/04/04 02:11:48;;;;;;;17.00;12.30;;;;;;;-2.57;78.37;97512.42;110034;1247;69376;-62
2022/04/04 02:14:17;;;;;;;19.00;14.40;;;;;;;-2.57;78.03;97513.10;110045;1247;69307;-64
2022/04/04 02:16:48;;;;;;;15.90;12.40;;;;;;;-2.56;79.28;97514.27;110114;1247;59720;-61
2022/04/04 02:19:18;;;;;;;16.40;11.30;;;;;;;-2.55;78.75;97511.37;110072;1248;59723;-61
2022/04/04 02:21:49;;;;;;;14.20;10.50;;;;;;;-2.56;78.76;97510.00;110029;1247;71495;-65
2022/04/04 02:24:19;;;;;;;17.60;11.30;;;;;;;-2.55;79.39;97510.52;110078;1247;69254;-63
2022/04/04 02:26:50;;;;;;;16.80;12.50;;;;;;;-2.53;80.85;97510.99;110055;1247;69423;-62
2022/04/04 02:29:19;;;;;;;;;;;;;;;-2.51;82.23;97511.80;109838;1250;59824;-61
2022/04/04 02:31:49;;;;;;;16.00;11.40;;;;;;;-2.50;81.51;97516.05;109821;1249;59706;-61
2022/04/04 02:34:20;;;;;;;19.10;13.00;;;;;;;-2.48;82.14;97513.98;109944;1248;71536;-61
2022/04/04 02:36:49;;;;;;;;;;;;;;;-2.46;81.54;97516.66;110071;1247;68592;-61
2022/04/04 02:39:19;;;;;;;18.70;12.70;;;;;;;-2.44;82.05;97518.34;110052;1248;68665;-61
2022/04/04 02:41:50;;;;;;;16.40;11.50;;;;;;;-2.42;81.31;97521.53;110033;1248;59697;-60
2022/04/04 02:44:21;;;;;;;18.30;12.30;;;;;;;-2.41;80.91;97516.05;109926;1251;59737;-62
2022/04/04 02:46:51;;;;;;;15.70;11.20;;;;;;;-2.41;81.20;97515.02;110034;1247;70622;-60
2022/04/04 02:49:23;;;;;;;18.20;12.60;;;;;;;-2.38;82.38;97518.72;110096;1247;67846;-60
2022/04/04 02:51:54;;;;;;;18.50;12.60;;;;;;;-2.36;83.04;97518.34;110050;1247;68639;-62
2022/04/04 02:54:25;;;;;;;19.70;14.60;;;;;;;-2.33;83.35;97519.45;110099;1247;59923;-60
2022/04/04 02:56:55;;;;;;;17.40;12.60;;;;;;;-2.30;83.44;97523.02;109947;1250;59663;-61
2022/04/04 02:59:24;;;;;;;15.10;10.70;;;;;;;-2.28;82.18;97521.77;109953;1247;70590;-61
2022/04/04 03:01:56;;;;;;;19.20;13.90;;;;;;;-2.27;81.80;97519.70;110051;1247;69364;-66
2022/04/04 03:04:27;;;;;;;19.80;14.10;;;;;;;-2.27;82.37;97516.96;109975;1249;69349;-63
2022/04/04 03:06:57;;;;;;;18.10;12.60;;;;;;;-2.27;82.29;97519.52;109814;1251;59793;-62
2022/04/04 03:09:27;;;;;;;12.10;9.90;;;;;;;-2.25;82.68;97521.71;110009;1248;59703;-62
2022/04/04 03:11:58;;;;;;;16.60;11.50;;;;;;;-2.23;81.87;97526.95;110021;1247;72313;-63
2022/04/04 03:14:28;;;;;;;;;;;;;;;-2.21;81.65;97525.22;110018;1248;69716;-62
2022/04/04 03:16:58;;;;;;;;;;;;;;;-2.18;81.80;97530.95;110022;1247;68551;-63
2022/04/04 03:19:28;;;;;;;17.80;12.30;;;;;;;-2.16;81.49;97529.39;110037;1248;59699;-61
2022/04/04 03:21:58;;;;;;;18.20;12.90;;;;;;;-2.14;81.23;97532.07;110040;1247;59673;-61
2022/04/04 03:24:28;;;;;;;17.90;12.90;;;;;;;-2.13;81.13;97533.75;110015;1248;71122;-64
2022/04/04 03:26:58;;;;;;;19.30;13.10;;;;;;;-2.11;81.21;97540.88;110112;1247;69432;-60
2022/04/04 03:29:28;;;;;;;18.80;12.40;;;;;;;-2.09;80.90;97540.66;110028;1248;68665;-61
2022/04/04 03:31:58;;;;;;;18.90;12.90;;;;;;;-2.10;81.08;97536.06;110051;1247;59690;-60
2022/04/04 03:34:29;;;;;;;18.30;13.00;;;;;;;-2.09;81.54;97542.37;110040;1247;59688;-64
2022/04/04 03:36:58;;;;;;;18.30;12.60;;;;;;;-2.08;80.03;97539.98;109886;1250;70756;-66
2022/04/04 03:39:28;;;;;;;18.20;12.70;;;;;;;-2.08;80.16;97541.68;110066;1247;69399;-62
2022/04/04 03:41:59;;;;;;;15.20;11.70;;;;;;;-2.07;79.99;97545.75;110069;1248;69384;-62
2022/04/04 03:44:29;;;;;;;16.00;13.00;;;;;;;-2.05;80.64;97550.67;110119;1247;59692;-64
2022/04/04 03:46:58;;;;;;;14.40;10.30;;;;;;;-2.03;81.18;97550.80;110092;1247;59725;-61
2022/04/04 03:49:29;;;;;;;15.60;12.40;;;;;;;-2.03;81.00;97550.45;110088;1247;71918;-62
2022/04/04 03:52:00;;;;;;;15.60;11.90;;;;;;;-2.03;80.45;97553.71;110085;1247;69175;-61
2022/04/04 03:54:30;;;;;;;13.60;10.80;;;;;;;-2.02;80.48;97554.21;109982;1248;68958;-62
2022/04/04 03:57:00;;;;;;;;;;;;;;;-2.03;80.05;97553.70;110060;1247;59715;-62
2022/04/04 03:59:29;;;;;;;19.90;12.90;;;;;;;-2.05;79.78;97557.83;109883;1248;59696;-63
2022/04/04 04:01:59;;;;;;;14.80;11.20;;;;;;;-2.06;79.76;97563.48;110052;1247;70767;-63
2022/04/04 04:04:29;;;;;;;16.10;12.00;;;;;;;-2.07;80.04;97563.17;109819;1251;68685;-64
2022/04/04 04:06:58;;;;;;;16.40;12.40;;;;;;;-2.07;81.15;97567.61;110067;1247;68594;-58
2022/04/04 04:09:28;;;;;;;17.60;14.00;;;;;;;-2.05;81.12;97566.54;109984;1248;59705;-61
2022/04/04 04:11:58;;;;;;;17.80;13.50;;;;;;;-2.06;79.68;97566.73;110022;1247;59751;-63
2022/04/04 04:14:27;;;;;;;16.10;11.40;;;;;;;-2.05;78.87;97567.23;110021;1247;70791;-65
2022/04/04 04:16:57;;;;;;;17.60;12.50;;;;;;;-2.05;79.20;97571.33;109767;1248;67894;-62
2022/04/04 04:22:15;;;;;;;18.90;12.60;;;;;;;-2.03;81.19;97578.30;109937;1247;59857;-64
2022/04/04 04:24:45;;;;;;;16.50;12.90;;;;;;;-2.03;80.84;97577.77;109958;1247;59683;-62
2022/04/04 04:27:15;;;;;;;17.30;12.30;;;;;;;-2.02;80.10;97580.52;110053;1247;71613;-66
2022/04/04 04:29:44;;;;;;;16.20;12.40;;;;;;;-2.03;79.52;97581.54;110004;1247;69446;-67
2022/04/04 04:32:14;;;;;;;36.10;23.80;;;;;;;-2.03;80.03;97575.58;110019;1246;68725;-62
2022/04/04 04:34:46;;;;;;;32.70;21.80;;;;;;;-2.01;79.57;97571.44;109954;1248;59798;-65
2022/04/04 04:37:17;;;;;;;26.70;18.20;;;;;;;-2.00;79.80;97572.09;110014;1247;59654;-66
2022/04/04 04:39:47;;;;;;;37.90;26.30;;;;;;;-1.97;80.04;97571.52;110038;1247;70167;-64
2022/04/04 04:42:17;;;;;;;33.40;23.50;;;;;;;-1.92;80.66;97573.12;110068;1247;68569;-68
2022/04/04 04:44:47;;;;;;;38.20;27.20;;;;;;;-1.86;82.31;97570.27;110113;1247;68653;-68
2022/04/04 04:47:18;;;;;;;40.50;27.80;;;;;;;-1.79;82.84;97573.36;110093;1247;59687;-66
2022/04/04 04:49:48;;;;;;;35.20;25.80;;;;;;;-1.69;81.89;97574.52;110101;1248;59684;-64
2022/04/04 04:52:17;;;;;;;28.50;19.60;;;;;;;-1.57;81.18;97568.44;109894;1248;71490;-63
2022/04/04 04:54:47;;;;;;;25.60;19.20;;;;;;;-1.42;79.96;97573.41;109806;1250;68603;-65
2022/04/04 04:57:18;;;;;;;23.40;18.50;;;;;;;-1.25;78.46;97574.38;110044;1247;68644;-63
2022/04/04 04:59:48;;;;;;;20.80;15.00;;;;;;;-1.08;77.91;97577.59;110098;1247;59688;-64
2022/04/04 05:02:18;;;;;;;22.20;16.40;;;;;;;-0.92;77.36;97577.20;109781;1247;59593;-66
2022/04/04 05:04:47;;;;;;;21.80;15.60;;;;;;;-0.80;77.97;97575.88;110021;1247;69906;-63
2022/04/04 05:07:17;;;;;;;17.50;14.50;;;;;;;-0.70;78.41;97573.06;110006;1247;69420;-63
2022/04/04 05:09:46;;;;;;;28.20;19.30;;;;;;;-0.60;78.53;97573.83;110016;1247;68692;-63
2022/04/04 05:12:15;;;;;;;31.40;21.50;;;;;;;-0.56;78.23;97576.63;110031;1247;59745;-61
2022/04/04 05:14:48;;;;;;;26.30;18.20;;;;;;;-0.56;76.96;97578.85;110015;1247;59714;-63
2022/04/04 05:17:18;;;;;;;27.40;21.20;;;;;;;-0.54;75.87;97578.12;110034;1247;71636;-63
2022/04/04 05:19:47;;;;;;;28.80;20.80;;;;;;;-0.57;75.32;97577.86;109978;1247;68571;-63
2022/04/04 05:22:17;;;;;;;18.90;14.10;;;;;;;-0.52;75.24;97583.05;109806;1250;68643;-62
2022/04/04 05:24:47;;;;;;;21.70;16.80;;;;;;;-0.46;75.42;97584.25;110012;1247;59754;-62
2022/04/04 05:27:16;;;;;;;19.80;16.50;;;;;;;-0.40;75.42;97585.65;109998;1247;59669;-61
2022/04/04 05:29:45;;;;;;;16.90;12.60;;;;;;;-0.33;75.15;97584.95;109972;1247;71640;-62
2022/04/04 05:32:15;;;;;;;19.50;13.80;;;;;;;-0.24;75.11;97586.41;109896;1248;69431;-62
2022/04/04 05:34:45;;;;;;;17.30;12.90;;;;;;;-0.20;74.13;97582.36;110050;1247;69519;-64
2022/04/04 05:37:15;;;;;;;18.90;14.00;;;;;;;-0.16;73.70;97582.91;109998;1247;59745;-61
2022/04/04 05:39:44;;;;;;;21.70;16.30;;;;;;;-0.13;72.53;97590.39;109794;1249;59712;-62
2022/04/04 05:42:15;;;;;;;21.80;15.70;;;;;;;-0.09;72.96;97589.59;110047;1246;70743;-64
2022/04/04 05:44:44;;;;;;;17.50;13.40;;;;;;;-0.00;73.73;97589.73;110125;1247;69401;-65
2022/04/04 05:47:17;;;;;;;20.40;14.70;;;;;;;0.06;73.85;97590.20;110088;1247;69012;-66
2022/04/04 05:49:51;;;;;;;16.50;13.90;;;;;;;0.12;74.09;97583.69;110139;1248;59755;-66
2022/04/04 05:52:25;;;;;;;17.70;12.90;;;;;;;0.10;71.05;97586.00;110165;1247;59630;-64
2022/04/04 05:54:54;;;;;;;18.00;13.20;;;;;;;0.14;71.68;97586.89;109897;1247;71611;-66
2022/04/04 05:57:26;;;;;;;15.80;12.00;;;;;;;0.23;71.80;97589.21;110057;1247;68921;-67
2022/04/04 05:59:55;;;;;;;18.60;14.00;;;;;;;0.31;71.36;97587.09;110054;1247;69544;-61
2022/04/04 06:02:26;;;;;;;15.90;12.70;;;;;;;0.28;68.48;97583.59;110004;1247;59719;-61
2022/04/04 06:04:56;;;;;;;17.60;11.70;;;;;;;0.36;69.39;97588.48;110037;1247;59656;-64
2022/04/04 06:07:25;;;;;;;14.00;12.10;;;;;;;0.39;68.27;97591.16;110048;1247;71364;-63
2022/04/04 06:09:55;;;;;;;21.20;13.70;;;;;;;0.44;68.47;97592.55;110013;1247;69506;-61
2022/04/04 06:12:28;;;;;;;15.10;13.10;;;;;;;0.40;68.17;97597.63;109980;1247;68734;-68
2022/04/04 06:14:57;;;;;;;15.50;12.00;;;;;;;0.39;68.56;97592.86;110027;1247;59652;-64
2022/04/04 06:17:26;;;;;;;13.70;10.00;;;;;;;0.54;70.32;97594.66;110158;1247;59685;-62
2022/04/04 06:19:56;;;;;;;18.60;14.90;;;;;;;0.64;68.45;97596.25;109930;1250;71269;-62
2022/04/04 06:22:34;;;;;;;18.20;13.50;;;;;;;0.73;68.56;97598.21;110062;1247;69422;-60
2022/04/04 06:25:08;;;;;;;17.60;13.40;;;;;;;0.71;68.15;97600.83;110019;1247;69450;-67
2022/04/04 06:27:37;;;;;;;17.70;13.20;;;;;;;0.93;67.61;97604.94;109611;1247;553106;-61
2022/04/04 06:30:07;;;;;;;16.60;13.40;;;;;;;1.16;66.91;97604.76;110029;1247;59615;-63
2022/04/04 06:32:41;;;;;;;16.50;13.50;;;;;;;1.18;66.13;97606.39;110008;1247;71342;-64
2022/04/04 06:35:12;;;;;;;15.70;12.50;;;;;;;1.43;68.01;97602.48;109952;1247;68746;-62
2022/04/04 06:37:43;;;;;;;13.00;10.20;;;;;;;1.77;67.99;97602.20;109778;1250;69241;-61
2022/04/04 06:40:13;;;;;;;11.10;9.20;;;;;;;2.05;66.87;97597.44;110071;1247;59721;-61
2022/04/04 06:42:44;;;;;;;13.80;10.40;;;;;;;2.36;63.23;97599.77;110026;1247;59720;-62
2022/04/04 06:45:17;;;;;;;15.00;10.70;;;;;;;2.58;64.18;97598.44;110062;1247;70821;-63
2022/04/04 06:47:46;;;;;;;13.40;11.50;;;;;;;2.72;62.21;97602.88;110053;1247;69373;-62
2022/04/04 06:50:16;;;;;;;13.90;10.10;;;;;;;2.65;61.99;97602.62;109833;1250;69392;-61
2022/04/04 06:52:45;;;;;;;13.40;11.40;;;;;;;2.64;61.74;97602.48;109999;1247;59760;-62
2022/04/04 06:55:35;;;;;;;14.80;11.60;;;;;;;2.69;62.58;97604.87;110041;1247;59691;-61
2022/04/04 06:58:06;;;;;;;13.50;11.60;;;;;;;2.70;62.03;97605.89;110062;1247;70853;-61
2022/04/04 07:00:35;;;;;;;13.60;10.50;;;;;;;2.70;62.10;97605.34;109870;1248;69386;-61
2022/04/04 07:03:07;;;;;;;15.90;11.60;;;;;;;2.79;62.38;97601.39;109926;1247;69487;-60
2022/04/04 07:05:37;;;;;;;14.50;11.00;;;;;;;2.79;62.65;97599.31;109901;1247;59750;-62
2022/04/04 07:08:07;;;;;;;11.90;9.60;;;;;;;2.85;63.05;97597.02;110053;1247;59682;-63
2022/04/04 07:10:37;;;;;;;14.30;11.60;;;;;;;2.86;62.57;97605.79;109861;1248;71570;-63
2022/04/04 07:13:06;;;;;;;14.90;12.40;;;;;;;2.78;62.95;97611.09;110028;1247;69421;-62
2022/04/04 07:15:36;;;;;;;14.10;11.50;;;;;;;2.60;60.97;97616.91;110033;1247;68699;-62
2022/04/04 07:18:06;;;;;;;15.60;10.90;;;;;;;2.44;61.61;97615.44;110023;1247;59686;-61
2022/04/04 07:20:35;;;;;;;14.30;11.50;;;;;;;2.37;62.53;97613.46;109803;1247;59695;-63
2022/04/04 07:23:05;;;;;;;13.30;10.20;;;;;;;2.42;62.72;97621.20;109875;1247;71524;-63
2022/04/04 07:25:36;;;;;;;;;;;;;;;2.45;62.90;97621.94;109965;1247;68772;-61
2022/04/04 07:28:05;;;;;;;14.70;12.30;;;;;;;2.53;63.38;97623.54;109915;1247;69393;-61
2022/04/04 07:30:35;;;;;;;12.70;10.50;;;;;;;2.60;63.67;97624.14;110035;1247;59750;-61
2022/04/04 07:33:04;;;;;;;13.60;10.50;;;;;;;2.65;63.06;97629.13;109990;1247;59691;-62
2022/04/04 07:35:34;;;;;;;15.40;12.60;;;;;;;2.68;63.00;97627.12;109933;1247;71553;-61
2022/04/04 07:38:03;;;;;;;15.20;11.90;;;;;;;2.70;63.40;97631.69;110032;1247;68638;-63
2022/04/04 07:40:32;;;;;;;14.30;11.60;;;;;;;2.68;63.53;97635.02;109827;1248;69448;-63
2022/04/04 07:43:02;;;;;;;17.40;13.20;;;;;;;2.58;63.47;97636.80;109963;1247;59697;-61
2022/04/04 07:45:32;;;;;;;17.20;12.80;;;;;;;2.45;64.05;97634.84;110035;1248;59666;-62
2022/04/04 07:48:03;;;;;;;17.90;12.90;;;;;;;2.38;64.39;97631.84;109988;1247;71389;-61
2022/04/04 07:50:35;;;;;;;20.30;13.80;;;;;;;2.38;64.47;97629.27;109974;1247;69425;-61
2022/04/04 07:53:04;;;;;;;14.80;11.80;;;;;;;2.29;64.44;97631.30;109900;1248;68508;-61
2022/04/04 07:55:36;;;;;;;14.50;11.90;;;;;;;2.23;64.80;97631.70;110069;1247;59751;-60
2022/04/04 07:58:06;;;;;;;17.50;12.00;;;;;;;2.15;65.81;97629.24;109865;1249;59711;-61
2022/04/04 08:00:35;;;;;;;16.50;13.90;;;;;;;2.10;66.28;97633.05;110027;1247;70817;-61
2022/04/04 08:03:05;;;;;;;18.00;13.80;;;;;;;2.03;66.84;97638.42;110025;1247;68586;-61
2022/04/04 08:05:34;;;;;;;17.10;12.80;;;;;;;1.99;66.53;97633.92;109842;1248;68786;-61
2022/04/04 08:08:04;;;;;;;14.60;11.30;;;;;;;1.93;66.98;97637.58;109898;1249;59684;-61
2022/04/04 08:10:33;;;;;;;15.90;12.30;;;;;;;1.89;67.16;97636.34;110099;1247;59746;-62
2022/04/04 08:13:03;;;;;;;16.60;13.40;;;;;;;1.86;67.48;97639.69;109961;1247;70732;-63
2022/04/04 08:15:33;;;;;;;16.50;12.50;;;;;;;1.79;67.53;97638.55;110058;1247;69356;-63
2022/04/04 08:18:03;;;;;;;12.60;10.10;;;;;;;1.81;67.70;97635.38;109960;1249;68626;-61
2022/04/04 08:20:34;;;;;;;18.30;12.60;;;;;;;1.80;68.82;97632.86;110160;1247;59729;-61
2022/04/04 08:23:03;;;;;;;15.80;12.00;;;;;;;2.01;68.11;97629.90;110049;1247;59749;-62
2022/04/04 08:25:32;;;;;;;17.60;12.70;;;;;;;2.31;67.72;97622.30;109845;1247;71381;-61
2022/04/04 08:28:02;;;;;;;19.80;13.90;;;;;;;2.86;67.24;97625.23;109948;1247;69522;-61
2022/04/04 08:30:31;;;;;;;16.60;12.70;;;;;;;3.33;65.67;97623.35;109891;1247;69551;-61
2022/04/04 08:33:01;;;;;;;18.50;13.60;;;;;;;3.65;64.41;97620.85;109917;1250;59738;-65
2022/04/04 08:35:30;;;;;;;;;;;;;;;3.84;64.56;97616.06;109928;1248;59676;-61
2022/04/04 08:38:00;;;;;;;14.10;11.50;;;;;;;3.97;64.17;97617.21;110012;1247;69779;-62
2022/04/04 08:40:29;;;;;;;18.60;13.10;;;;;;;4.14;63.41;97618.23;110066;1247;69425;-60
2022/04/04 08:43:00;;;;;;;14.40;11.50;;;;;;;4.30;62.74;97616.15;110002;1247;68466;-60
2022/04/04 08:45:30;;;;;;;13.70;10.90;;;;;;;4.38;62.84;97610.63;109974;1248;59736;-60
2022/04/04 08:47:59;;;;;;;14.00;11.10;;;;;;;4.42;62.95;97610.79;110052;1248;59753;-61
2022/04/04 08:50:29;;;;;;;13.70;10.70;;;;;;;4.34;62.66;97610.98;110074;1247;71920;-60
2022/04/04 08:53:02;;;;;;;14.60;12.40;;;;;;;4.27;62.35;97604.71;110098;1247;68425;-63
2022/04/04 08:55:34;;;;;;;12.90;10.00;;;;;;;4.72;60.91;97602.19;110023;1247;69583;-61
2022/04/04 08:58:03;;;;;;;15.20;12.00;;;;;;;4.99;59.26;97597.95;110033;1247;59781;-61
2022/04/04 09:00:35;;;;;;;13.80;12.30;;;;;;;5.17;58.91;97591.25;110089;1247;59719;-61
2022/04/04 09:03:06;;;;;;;13.90;12.40;;;;;;;5.11;58.69;97590.81;109922;1247;71534;-61
2022/04/04 09:05:50;;;;;;;15.60;12.70;;;;;;;4.81;59.81;97592.61;110090;1247;70189;-60
2022/04/04 09:08:28;;;;;;;14.30;11.60;;;;;;;5.21;58.46;97590.38;110056;1247;68939;-62
2022/04/04 09:11:01;;;;;;;13.50;11.70;;;;;;;5.75;56.97;97589.73;110001;1247;59710;-64
2022/04/04 09:13:30;;;;;;;13.10;11.10;;;;;;;5.83;56.41;97584.86;110049;1247;60199;-64
2022/04/04 09:16:02;;;;;;;15.60;12.80;;;;;;;5.67;55.85;97580.84;110044;1247;71568;-63
2022/04/04 09:18:37;;;;;;;15.90;13.10;;;;;;;5.44;57.07;97577.48;110036;1247;68600;-63
2022/04/04 09:21:26;;;;;;;15.40;12.50;;;;;;;5.25;57.18;97571.31;110087;1247;69207;-66
2022/04/04 09:23:58;;;;;;;15.60;13.90;;;;;;;4.78;57.51;97564.77;110053;1247;59652;-61
2022/04/04 09:26:30;;;;;;;15.60;13.20;;;;;;;4.36;58.78;97554.79;110022;1247;59675;-61
2022/04/04 09:29:01;;;;;;;18.30;14.80;;;;;;;4.34;59.87;97553.52;110020;1247;71586;-62
2022/04/04 09:31:31;;;;;;;16.00;12.80;;;;;;;4.19;60.71;97551.42;110086;1247;69616;-61
2022/04/04 09:34:02;;;;;;;16.10;12.90;;;;;;;4.29;60.76;97545.77;109844;1248;68769;-60
2022/04/04 09:36:32;;;;;;;18.10;13.00;;;;;;;4.27;60.83;97542.77;110070;1247;59975;-61
2022/04/04 09:39:08;;;;;;;;;;;;;;;4.08;61.21;97540.21;109871;1250;60089;-64
2022/04/04 09:41:41;;;;;;;18.00;13.90;;;;;;;3.92;61.04;97536.25;110010;1247;72261;-62
2022/04/04 09:44:11;;;;;;;16.40;12.90;;;;;;;3.62;61.30;97531.55;110029;1247;68674;-62
2022/04/04 09:46:43;;;;;;;14.80;10.80;;;;;;;3.57;61.85;97522.92;109795;1248;69464;-63
2022/04/04 09:49:17;;;;;;;12.70;9.70;;;;;;;3.65;61.93;97519.67;110112;1247;59702;-61
2022/04/04 09:51:53;;;;;;;15.10;11.20;;;;;;;3.71;62.19;97520.63;110076;1247;59703;-68
2022/04/04 09:54:26;;;;;;;15.90;12.50;;;;;;;3.87;62.02;97516.64;109944;1248;71476;-62
2022/04/04 09:57:09;;;;;;;14.60;12.60;;;;;;;3.97;60.52;97517.92;110103;1247;68735;-62
2022/04/04 09:59:41;;;;;;;16.40;12.60;;;;;;;4.06;61.70;97510.63;110023;1247;68287;-61
2022/04/04 10:02:13;;;;;;;18.40;13.40;;;;;;;4.20;61.97;97508.98;110069;1247;59673;-62
2022/04/04 10:04:44;;;;;;;16.00;13.60;;;;;;;4.36;61.02;97510.66;110070;1247;59705;-63
2022/04/04 10:07:18;;;;;;;21.00;13.40;;;;;;;4.65;60.98;97509.09;110073;1246;72171;-64
2022/04/04 10:09:47;;;;;;;18.70;13.90;;;;;;;4.96;59.82;97503.80;109890;1247;68658;-62
2022/04/04 10:12:22;;;;;;;16.70;14.30;;;;;;;5.23;59.93;97499.19;110085;1247;68441;-63
2022/04/04 10:14:55;;;;;;;15.90;11.60;;;;;;;5.70;58.50;97498.02;110042;1247;59743;-64
2022/04/04 10:17:24;;;;;;;15.10;13.00;;;;;;;6.05;59.34;97493.94;110038;1247;59688;-63
2022/04/04 10:19:54;;;;;;;16.50;12.80;;;;;;;6.00;56.43;97491.77;109950;1247;70623;-64
2022/04/04 10:22:24;;;;;;;16.30;12.90;;;;;;;5.91;56.98;97487.11;110058;1247;69433;-62
2022/04/04 10:24:53;;;;;;;;;;;;;;;5.79;57.18;97484.39;110067;1247;68678;-61
2022/04/04 10:27:24;;;;;;;14.20;11.20;;;;;;;5.61;57.77;97482.23;109893;1247;59636;-61
2022/04/04 10:30:05;;;;;;;14.00;11.30;;;;;;;5.61;58.24;97481.86;110013;1247;59667;-62
2022/04/04 10:32:35;;;;;;;15.30;12.60;;;;;;;5.61;57.85;97483.11;110028;1247;72153;-61
2022/04/04 10:35:13;;;;;;;14.70;11.70;;;;;;;5.44;56.83;97480.15;110092;1247;69547;-61
2022/04/04 10:37:44;;;;;;;13.50;10.60;;;;;;;5.43;57.06;97476.75;109801;1248;69483;-61
2022/04/04 10:40:25;;;;;;;14.50;11.30;;;;;;;5.43;55.88;97472.95;109639;1247;59748;-61
2022/04/04 10:43:14;;;;;;;12.60;9.60;;;;;;;5.62;55.83;97474.20;110021;1247;59740;-61
2022/04/04 10:45:58;;;;;;;14.00;11.10;;;;;;;5.96;55.33;97471.78;109916;1248;72154;-61
2022/04/04 10:48:51;;;;;;;15.00;12.00;;;;;;;6.47;56.22;97465.36;110030;1246;67853;-63
2022/04/04 10:51:34;;;;;;;13.20;10.70;;;;;;;6.81;55.47;97459.51;110022;1247;67741;-62
2022/04/04 10:54:12;;;;;;;15.20;12.80;;;;;;;6.89;53.83;97454.19;110192;1247;59700;-60
2022/04/04 10:56:47;;;;;;;13.70;11.80;;;;;;;6.77;53.69;97453.10;110038;1247;59672;-61
2022/04/04 10:59:16;;;;;;;15.60;11.90;;;;;;;6.59;54.16;97449.63;110046;1247;71395;-61
2022/04/04 11:01:48;;;;;;;12.80;11.20;;;;;;;6.73;55.64;97445.92;110039;1247;69295;-62
2022/04/04 11:04:24;;;;;;;15.20;12.40;;;;;;;6.60;55.74;97436.09;110083;1247;68523;-64
2022/04/04 11:10:06;;;;;;;16.70;14.20;;;;;;;6.16;57.10;97442.51;110094;1247;59679;-60
2022/04/04 11:13:08;;;;;;;18.60;13.80;;;;;;;6.07;56.52;97442.61;110093;1247;71271;-65
2022/04/04 11:15:55;;;;;;;15.60;12.50;;;;;;;5.78;56.05;97436.91;110048;1246;69444;-63
2022/04/04 11:18:46;;;;;;;15.80;12.80;;;;;;;5.40;56.55;97435.59;109906;1247;69447;-62
2022/04/04 11:21:42;;;;;;;15.90;13.40;;;;;;;5.13;56.91;97434.38;110018;1247;59748;-63
2022/04/04 11:24:11;;;;;;;15.20;13.20;;;;;;;4.95;57.24;97434.95;110025;1247;59680;-65
2022/04/04 11:26:42;;;;;;;15.30;12.70;;;;;;;4.85;57.72;97434.25;109819;1247;71348;-61
2022/04/04 11:29:21;;;;;;;15.60;10.80;;;;;;;4.79;58.02;97427.46;110058;1247;68851;-62
2022/04/04 11:31:51;;;;;;;13.80;10.70;;;;;;;4.90;59.53;97423.80;110060;1247;69374;-63
2022/04/04 11:34:23;;;;;;;14.00;10.40;;;;;;;5.06;59.11;97419.89;110009;1246;59710;-63
2022/04/04 11:36:53;;;;;;;16.70;12.90;;;;;;;5.29;58.69;97419.39;110053;1247;59684;-62
2022/04/04 11:39:23;;;;;;;16.10;12.70;;;;;;;5.62;57.54;97411.64;110043;1247;71534;-65
2022/04/04 11:42:07;;;;;;;14.50;11.70;;;;;;;5.79;57.18;97407.08;110034;1247;69015;-63